INDIA METEOROLOGICAL DEPARTMENT, R.M.C. NEW DELHI
Dated:09-04-2020
METARS


Ahmedabad  
VAAH 082100Z 23005KT 4000 FU FEW080 26/18 Q1010 NOSIG=
Bangalore  
VOBL 082100Z VRB02KT 8000 SCT015 BKN080 24/20 Q1015 NOSIG=
Bhubaneswar
VEBS 082100Z 03007KT 4000 HZ SCT020 FEW030CB SCT100 23/17 Q1011 NOSIG=
Chennai    
VOMM 082100Z 22004KT 6000 FEW020 SCT100 29/26 Q1010 NOSIG=
Coimbatore 
VOCB 082100Z VRB02KT 6000 FEW015 25/21 Q1013 NOSIG=
Colombo    
VCBI 082010Z NIL=
Delhi      
VIDP 082100Z 31004KT 3200 HZ FEW100 24/09 Q1010 NOSIG=
Gauhati    
VEGT 082100Z NIL=
Gaya       
VEGY 082100Z 14005KT 2500 HZ FEW100 22/12 Q1009 =
Hyderabad  
VOHS 082000Z 30005KT 6000 SCT020 SCT100 26/19 Q1014 NOSIG=
Indore     
VAID 082100Z 27005KT 6000 FEW100 25/09 Q1013 NOSIG=
Jaipur     
VIJP 082100Z 04006KT 3000 HZ FEW100 26/07 Q1011 NOSIG=
Kochi      
VOCI 082000Z 11002KT 3500 BR FEW015 SCT080 25/23 Q1011 NOSIG=
Kolkata    
VECC 082100Z 28005KT 3200 HZ SCT018 SCT100 27/15 Q1007 NOSIG=
Lucknow    
VILK 082000Z 34004KT 4000 HZ FEW100 27/11 Q1009 NOSIG=
Mumbai     
VABB 082100Z 11003KT 4000 HZ NSC 27/22 Q1011 NOSIG=
Nagpur     
VANP 082100Z 32003KT 4000 HZ NSC 27/05 Q1009 NOSIG=
Patna      
VEPT 082100Z 00000KT 3000 HZ NSC 25/09 Q1007 NOSIG=
Ranchi     
VERC 082100Z 00000KT 3000 HZ SCT018 BKN100 21/17 Q1014 NOSIG=
Trichy     
VOTR 082100Z 29006KT 5000 HZ FEW016 SCT100 27/23 Q1009 NOSIG=
Trivandrum 
VOTV 082100Z 03003KT 4000 BR FEW015 27/22 Q1009 NOSIG=
Male       
VRMM 082000Z 30004KT 9999 SCT018 29/25 Q1012 NOSIG=
Kathmandu  
VNKT 082100Z NIL=
Dhaka      
VGHS 082100Z 24003KT 4000 HZ SCT015 27/23 Q1008 NOSIG=
Colombo    
VCBI 082010Z NIL=
Karachi    
OPKC 082055Z 27006KT 6000 NSC 24/21 Q1011 NOSIG=
Lahore     
OPLA 082100Z NIL=